createdAt,value
2022-10-01T00:01:19.036Z,2.47
2022-10-01T00:03:46.767Z,2.25
2022-10-01T00:06:16.844Z,2.50
2022-10-01T00:08:45.852Z,2.30
2022-10-01T00:11:16.445Z,1.70
2022-10-01T00:14:08.627Z,1.85
2022-10-01T00:16:36.996Z,1.60
2022-10-01T00:19:04.046Z,2.13
2022-10-01T00:21:32.977Z,1.83
2022-10-01T00:24:04.177Z,1.88
2022-10-01T00:26:34.277Z,2.17
2022-10-01T00:29:04.600Z,1.90
2022-10-01T00:31:32.500Z,1.80
2022-10-01T00:34:02.755Z,2.00
2022-10-01T00:36:31.092Z,1.60
2022-10-01T00:38:58.684Z,2.10
2022-10-01T00:41:26.121Z,2.20
2022-10-01T00:43:57.728Z,1.70
2022-10-01T00:46:29.369Z,2.15
2022-10-01T00:49:02.971Z,1.63
2022-10-01T00:51:37.698Z,1.65
2022-10-01T00:54:12.862Z,1.85
2022-10-01T00:56:40.960Z,1.75
2022-10-01T00:59:08.166Z,1.92
2022-10-01T01:01:38.072Z,2.15
2022-10-01T01:04:06.701Z,2.05
2022-10-01T01:06:33.659Z,2.05
2022-10-01T01:09:00.507Z,2.25
2022-10-01T01:11:36.212Z,1.90
2022-10-01T01:14:16.808Z,1.98
2022-10-01T01:16:50.819Z,2.08
2022-10-01T01:19:41.200Z,1.63
2022-10-01T01:22:11.723Z,1.90
2022-10-01T01:24:49.941Z,2.10
2022-10-01T01:27:30.176Z,1.98
2022-10-01T01:30:04.192Z,1.60
2022-10-01T01:32:40.181Z,2.20
2022-10-01T01:35:11.492Z,2.38
2022-10-01T01:37:46.863Z,2.20
2022-10-01T01:40:17.322Z,2.15
2022-10-01T01:42:47.043Z,2.03
2022-10-01T01:45:22.093Z,2.03
2022-10-01T01:47:51.261Z,2.45
2022-10-01T01:50:18.945Z,2.22
2022-10-01T01:52:45.706Z,1.85
2022-10-01T01:55:13.372Z,1.98
2022-10-01T01:57:43.967Z,2.40
2022-10-01T02:00:13.412Z,2.50
2022-10-01T02:02:48.700Z,2.15
2022-10-01T02:05:21.376Z,1.90
2022-10-01T02:08:24.637Z,2.40
2022-10-01T02:11:18.657Z,2.10
2022-10-01T02:14:25.020Z,2.00
2022-10-01T02:17:01.562Z,2.20
2022-10-01T02:19:36.870Z,1.70
2022-10-01T02:22:11.815Z,1.55
2022-10-01T02:24:44.309Z,1.58
2022-10-01T02:27:17.921Z,2.00
2022-10-01T02:29:48.547Z,2.33
2022-10-01T02:32:18.854Z,1.83
2022-10-01T02:34:49.696Z,1.95
2022-10-01T02:37:22.017Z,2.00
2022-10-01T02:42:23.192Z,2.38
2022-10-01T02:44:53.755Z,2.42
2022-10-01T02:47:26.414Z,1.80
2022-10-01T02:49:55.045Z,1.92
2022-10-01T02:52:30.975Z,1.90
2022-10-01T02:55:05.008Z,2.13
2022-10-01T02:57:32.268Z,1.90
2022-10-01T03:00:01.776Z,2.20
2022-10-01T03:02:31.714Z,2.15
2022-10-01T03:05:00.964Z,2.45
2022-10-01T03:07:31.970Z,2.20
2022-10-01T03:09:58.800Z,1.85
2022-10-01T03:12:26.080Z,1.80
2022-10-01T03:14:54.746Z,1.55
2022-10-01T03:17:21.759Z,1.60
2022-10-01T03:19:48.779Z,1.63
2022-10-01T03:22:19.052Z,1.65
2022-10-01T03:24:45.846Z,1.85
2022-10-01T03:27:12.696Z,2.00
2022-10-01T03:29:39.508Z,1.90
2022-10-01T03:32:06.658Z,1.50
2022-10-01T03:34:33.450Z,1.90
2022-10-01T03:37:00.311Z,2.13
2022-10-01T03:39:28.629Z,1.83
2022-10-01T03:41:55.576Z,1.80
2022-10-01T03:44:22.454Z,1.70
2022-10-01T03:46:49.479Z,1.88
2022-10-01T03:49:16.439Z,1.58
2022-10-01T03:51:44.120Z,1.60
2022-10-01T03:54:10.946Z,1.40
2022-10-01T03:56:39.505Z,1.40
2022-10-01T03:59:06.600Z,1.30
2022-10-01T04:01:33.939Z,1.40
2022-10-01T04:04:01.908Z,1.58
2022-10-01T04:06:28.624Z,1.83
2022-10-01T04:08:55.383Z,1.65
2022-10-01T04:14:14.860Z,1.60
2022-10-01T04:16:41.597Z,1.42
2022-10-01T04:19:08.370Z,1.67
2022-10-01T04:21:35.470Z,1.75
2022-10-01T04:24:02.659Z,1.65
2022-10-01T04:26:29.414Z,1.80
2022-10-01T04:28:56.567Z,2.08
2022-10-01T04:31:24.789Z,2.40
2022-10-01T04:33:52.317Z,1.85
2022-10-01T04:36:19.439Z,1.88
2022-10-01T04:38:46.326Z,1.80
2022-10-01T04:41:13.025Z,1.88
2022-10-01T04:43:39.911Z,1.58
2022-10-01T04:46:07.829Z,1.80
2022-10-01T04:48:36.024Z,2.08
2022-10-01T04:51:03.405Z,1.90
2022-10-01T04:53:30.248Z,2.00
2022-10-01T04:55:57.153Z,1.27
2022-10-01T04:58:24.340Z,1.98
2022-10-01T05:00:51.314Z,1.75
2022-10-01T05:03:18.441Z,1.83
2022-10-01T05:05:46.703Z,1.92
2022-10-01T05:08:13.711Z,1.92
2022-10-01T05:10:40.574Z,1.90
2022-10-01T05:13:07.573Z,1.50
2022-10-01T05:15:34.680Z,2.00
2022-10-01T05:18:01.528Z,1.70
2022-10-01T05:20:28.277Z,2.20
2022-10-01T05:22:56.599Z,2.00
2022-10-01T05:25:23.649Z,2.50
2022-10-01T05:27:50.584Z,2.35
2022-10-01T05:30:17.920Z,2.22
2022-10-01T05:32:54.604Z,1.83
2022-10-01T05:35:21.872Z,1.67
2022-10-01T05:37:53.985Z,1.85
2022-10-01T05:40:22.210Z,2.05
2022-10-01T05:42:48.907Z,1.75
2022-10-01T05:45:15.900Z,2.10
2022-10-01T05:47:42.784Z,2.10
2022-10-01T05:50:09.867Z,1.80
2022-10-01T05:52:36.730Z,1.48
2022-10-01T05:55:04.643Z,1.73
2022-10-01T05:57:32.877Z,2.28
2022-10-01T05:59:59.700Z,2.17
2022-10-01T06:02:26.571Z,2.28
2022-10-01T06:04:53.633Z,2.08
2022-10-01T06:07:20.536Z,1.92
2022-10-01T06:09:47.320Z,2.20
2022-10-01T06:12:18.974Z,1.75
2022-10-01T06:14:47.937Z,1.52
2022-10-01T06:17:14.669Z,1.95
2022-10-01T06:19:41.468Z,2.05
2022-10-01T06:22:08.255Z,2.13
2022-10-01T06:24:36.137Z,2.13
2022-10-01T06:27:02.960Z,1.98
2022-10-01T06:29:29.769Z,2.13
2022-10-01T06:31:57.854Z,2.00
2022-10-01T06:34:24.567Z,2.20
2022-10-01T06:37:16.633Z,1.88
2022-10-01T06:39:43.342Z,1.65
2022-10-01T06:42:10.353Z,2.05
2022-10-01T06:44:37.391Z,2.70
2022-10-01T06:47:05.467Z,2.00
2022-10-01T06:49:32.208Z,2.00
2022-10-01T06:51:59.018Z,2.38
2022-10-01T06:54:25.671Z,1.70
2022-10-01T06:56:52.494Z,2.28
2022-10-01T06:59:19.447Z,1.98
2022-10-01T07:01:54.177Z,2.40
2022-10-01T07:04:24.399Z,1.90
2022-10-01T07:06:51.187Z,2.53
2022-10-01T07:09:17.851Z,2.40
2022-10-01T07:11:44.837Z,1.75
2022-10-01T07:14:11.612Z,1.83
2022-10-01T07:16:38.577Z,2.40
2022-10-01T07:19:05.476Z,1.73
2022-10-01T07:21:33.894Z,2.30
2022-10-01T07:24:01.206Z,1.90
2022-10-01T07:26:28.279Z,2.08
2022-10-01T07:28:55.135Z,2.30
2022-10-01T07:31:22.176Z,1.77
2022-10-01T07:33:48.907Z,2.40
2022-10-01T07:36:16.021Z,2.22
2022-10-01T07:38:49.694Z,2.13
2022-10-01T07:41:16.607Z,1.70
2022-10-01T07:43:46.115Z,1.98
2022-10-01T07:46:12.936Z,1.70
2022-10-01T07:48:39.964Z,2.00
2022-10-01T07:51:07.067Z,1.80
2022-10-01T07:53:33.860Z,1.83
2022-10-01T07:56:03.417Z,1.98
2022-10-01T07:58:30.322Z,1.60
2022-10-01T08:03:48.688Z,1.75
2022-10-01T08:06:15.855Z,1.40
2022-10-01T08:08:42.629Z,1.67
2022-10-01T08:11:11.238Z,2.10
2022-10-01T08:13:38.007Z,1.65
2022-10-01T08:16:06.251Z,1.77
2022-10-01T08:18:33.984Z,1.50
2022-10-01T08:21:01.431Z,1.50
2022-10-01T08:23:31.073Z,1.63
2022-10-01T08:26:00.890Z,1.50
2022-10-01T08:28:29.242Z,1.60
2022-10-01T08:30:56.206Z,1.50
2022-10-01T08:33:23.477Z,1.50
2022-10-01T08:35:50.567Z,1.48
2022-10-01T08:38:17.452Z,1.67
2022-10-01T08:40:48.474Z,1.50
2022-10-01T08:43:33.765Z,1.58
2022-10-01T08:46:06.608Z,1.45
2022-10-01T08:48:54.792Z,1.45
2022-10-01T08:51:31.803Z,1.40
2022-10-01T08:54:09.983Z,1.10
2022-10-01T08:56:41.629Z,1.20
2022-10-01T08:59:31.108Z,1.30
2022-10-01T09:01:58.593Z,0.80
2022-10-01T09:04:26.674Z,1.50
2022-10-01T09:07:06.965Z,1.60
2022-10-01T09:09:46.197Z,1.35
2022-10-01T09:12:28.433Z,1.13
2022-10-01T09:15:21.975Z,1.00
2022-10-01T09:18:02.476Z,1.20
2022-10-01T09:20:36.528Z,1.27
2022-10-01T09:23:19.013Z,1.08
2022-10-01T09:25:49.825Z,0.95
2022-10-01T09:28:20.733Z,1.08
2022-10-01T09:30:56.497Z,1.00
2022-10-01T09:33:31.023Z,1.00
2022-10-01T09:36:12.735Z,0.85
2022-10-01T09:38:42.657Z,0.90
2022-10-01T09:41:11.278Z,1.63
2022-10-01T09:43:40.622Z,2.22
2022-10-01T09:46:14.735Z,3.35
2022-10-01T09:48:54.587Z,1.50
2022-10-01T09:51:27.360Z,1.05
2022-10-01T09:54:04.774Z,0.82
2022-10-01T09:56:41.840Z,1.40
2022-10-01T09:59:15.735Z,0.90
2022-10-01T10:01:49.307Z,0.95
2022-10-01T10:04:20.243Z,1.00
2022-10-01T10:06:47.919Z,0.90
2022-10-01T10:09:18.402Z,1.20
2022-10-01T10:11:45.913Z,1.15
2022-10-01T10:14:29.331Z,1.30
2022-10-01T10:16:57.874Z,1.10
2022-10-01T10:19:27.910Z,1.48
2022-10-01T10:21:57.506Z,1.20
2022-10-01T10:24:31.425Z,2.20
2022-10-01T10:27:00.674Z,2.13
2022-10-01T10:29:30.034Z,1.60
2022-10-01T10:32:02.602Z,1.50
2022-10-01T10:34:35.580Z,1.70
2022-10-01T10:37:13.269Z,1.70
2022-10-01T10:39:42.470Z,1.70
2022-10-01T10:42:15.158Z,1.80
2022-10-01T10:44:47.416Z,1.60
2022-10-01T10:47:18.301Z,1.80
2022-10-01T10:49:50.170Z,2.53
2022-10-01T10:52:26.511Z,1.65
2022-10-01T10:54:53.351Z,2.10
2022-10-01T10:57:24.601Z,2.05
2022-10-01T10:59:57.804Z,1.70
2022-10-01T11:02:27.847Z,2.00
2022-10-01T11:05:02.689Z,2.45
2022-10-01T11:07:31.344Z,2.20
2022-10-01T11:10:27.855Z,2.00
2022-10-01T11:13:12.259Z,2.03
2022-10-01T11:16:02.719Z,1.58
2022-10-01T11:18:46.735Z,1.88
2022-10-01T11:21:45.631Z,1.52
2022-10-01T11:24:33.634Z,1.58
2022-10-01T11:27:10.046Z,1.67
2022-10-01T11:29:53.852Z,1.45
2022-10-01T11:32:32.905Z,1.40
2022-10-01T11:35:29.180Z,1.95
2022-10-01T11:38:30.924Z,1.50
2022-10-01T11:41:14.910Z,1.40
2022-10-01T11:43:45.710Z,1.73
2022-10-01T11:46:25.387Z,1.50
2022-10-01T11:49:02.443Z,1.70
2022-10-01T11:51:42.547Z,1.13
2022-10-01T11:54:16.500Z,1.30
2022-10-01T11:56:50.005Z,1.40
2022-10-01T11:59:24.430Z,1.60
2022-10-01T12:02:03.468Z,1.52
2022-10-01T12:04:36.828Z,2.28
2022-10-01T12:07:15.060Z,1.27
2022-10-01T12:09:58.100Z,1.40
2022-10-01T12:12:30.070Z,1.35
2022-10-01T12:15:09.147Z,1.02
2022-10-01T12:17:44.123Z,0.93
2022-10-01T12:20:23.313Z,1.38
2022-10-01T12:22:54.392Z,1.02
2022-10-01T12:25:29.008Z,1.20
2022-10-01T12:28:05.851Z,1.10
2022-10-01T12:30:43.181Z,1.10
2022-10-01T12:33:36.537Z,1.20
2022-10-01T12:36:18.647Z,1.02
2022-10-01T12:39:09.215Z,1.05
2022-10-01T12:41:52.796Z,1.00
2022-10-01T12:44:37.316Z,1.10
2022-10-01T12:47:20.274Z,1.10
2022-10-01T12:49:56.954Z,1.00
2022-10-01T12:52:39.587Z,1.08
2022-10-01T12:55:28.458Z,1.50
2022-10-01T12:58:05.228Z,0.75
2022-10-01T13:00:40.872Z,0.63
2022-10-01T13:03:47.670Z,0.73
2022-10-01T13:06:31.279Z,0.63
2022-10-01T13:09:15.938Z,0.98
2022-10-01T13:12:06.691Z,0.95
2022-10-01T13:14:35.241Z,1.00
2022-10-01T13:17:11.780Z,1.00
2022-10-01T13:19:47.927Z,0.90
2022-10-01T13:22:27.940Z,0.80
2022-10-01T13:25:07.414Z,1.08
2022-10-01T13:27:44.534Z,1.30
2022-10-01T13:30:18.874Z,0.90
2022-10-01T13:32:52.479Z,0.60
2022-10-01T13:35:30.504Z,0.75
2022-10-01T13:37:59.832Z,0.85
2022-10-01T13:40:30.538Z,0.80
2022-10-01T13:43:02.502Z,1.20
2022-10-01T13:45:39.444Z,1.25
2022-10-01T13:48:19.873Z,0.55
2022-10-01T13:51:00.201Z,0.77
2022-10-01T13:53:27.866Z,0.90
2022-10-01T13:55:56.245Z,0.73
2022-10-01T13:58:37.772Z,0.95
2022-10-01T14:01:26.112Z,1.00
2022-10-01T14:04:04.176Z,1.00
2022-10-01T14:06:40.904Z,0.95
2022-10-01T14:09:16.375Z,1.00
2022-10-01T14:11:48.847Z,0.90
2022-10-01T14:14:25.900Z,1.08
2022-10-01T14:16:54.645Z,0.70
2022-10-01T14:19:24.971Z,0.90
2022-10-01T14:22:14.316Z,0.80
2022-10-01T14:25:08.044Z,1.00
2022-10-01T14:27:45.562Z,1.25
2022-10-01T14:30:19.475Z,0.75
2022-10-01T14:33:12.110Z,0.70
2022-10-01T14:35:46.288Z,0.77
2022-10-01T14:38:19.372Z,0.57
2022-10-01T14:40:48.931Z,1.00
2022-10-01T14:43:19.870Z,0.77
2022-10-01T14:45:54.574Z,1.00
2022-10-01T14:48:21.773Z,0.90
2022-10-01T14:50:53.119Z,0.80
2022-10-01T14:53:24.309Z,0.47
2022-10-01T14:55:54.838Z,0.80
2022-10-01T14:58:28.929Z,0.75
2022-10-01T15:00:58.647Z,0.50
2022-10-01T15:03:53.299Z,0.60
2022-10-01T15:06:23.011Z,0.80
2022-10-01T15:08:52.849Z,0.65
2022-10-01T15:11:23.974Z,0.70
2022-10-01T15:14:20.738Z,0.80
2022-10-01T15:16:49.731Z,0.80
2022-10-01T15:19:21.749Z,0.90
2022-10-01T15:21:52.852Z,0.90
2022-10-01T15:24:25.845Z,0.70
2022-10-01T15:26:55.483Z,0.45
2022-10-01T15:29:22.671Z,0.90
2022-10-01T15:31:52.602Z,1.02
2022-10-01T15:34:27.496Z,0.82
2022-10-01T15:36:55.465Z,0.70
2022-10-01T15:39:31.331Z,0.93
2022-10-01T15:42:01.105Z,0.93
2022-10-01T15:44:46.589Z,0.60
2022-10-01T15:47:33.317Z,0.50
2022-10-01T15:50:19.515Z,0.77
2022-10-01T15:52:52.798Z,0.70
2022-10-01T15:55:28.601Z,1.17
2022-10-01T15:58:05.057Z,1.10
2022-10-01T16:00:41.944Z,1.05
2022-10-01T16:03:20.398Z,0.88
2022-10-01T16:05:50.978Z,2.00
2022-10-01T16:08:19.800Z,1.33
2022-10-01T16:10:47.506Z,1.30
2022-10-01T16:13:35.258Z,1.20
2022-10-01T16:16:24.028Z,1.63
2022-10-01T16:18:59.356Z,2.50
2022-10-01T16:21:26.857Z,2.75
2022-10-01T16:23:55.067Z,1.10
2022-10-01T16:26:34.261Z,1.08
2022-10-01T16:29:06.039Z,1.27
2022-10-01T16:31:36.213Z,0.90
2022-10-01T16:34:11.419Z,0.90
2022-10-01T16:36:39.289Z,0.88
2022-10-01T16:39:05.962Z,2.20
2022-10-01T16:41:35.063Z,1.00
2022-10-01T16:44:04.447Z,0.85
2022-10-01T16:46:31.827Z,0.95
2022-10-01T16:48:59.393Z,1.17
2022-10-01T16:51:27.480Z,0.80
2022-10-01T16:53:54.736Z,0.75
2022-10-01T16:56:26.904Z,0.98
2022-10-01T16:58:54.064Z,1.02
2022-10-01T17:01:24.735Z,0.90
2022-10-01T17:03:51.998Z,1.10
2022-10-01T17:06:18.839Z,0.80
2022-10-01T17:08:46.888Z,0.90
2022-10-01T17:11:13.798Z,1.08
2022-10-01T17:13:41.103Z,0.88
2022-10-01T17:16:09.081Z,0.80
2022-10-01T17:18:35.892Z,1.00
2022-10-01T17:21:04.301Z,1.40
2022-10-01T17:23:31.344Z,1.05
2022-10-01T17:25:59.427Z,0.77
2022-10-01T17:28:26.209Z,0.90
2022-10-01T17:30:52.958Z,1.30
2022-10-01T17:33:19.955Z,0.95
2022-10-01T17:35:49.292Z,0.95
2022-10-01T17:38:16.193Z,0.90
2022-10-01T17:40:43.897Z,1.10
2022-10-01T17:43:14.007Z,0.75
2022-10-01T17:45:42.211Z,0.88
2022-10-01T17:48:09.860Z,1.23
2022-10-01T17:50:36.783Z,0.93
2022-10-01T17:53:03.675Z,2.50
2022-10-01T17:55:30.620Z,1.80
2022-10-01T17:57:57.444Z,1.05
2022-10-01T18:00:25.529Z,0.90
2022-10-01T18:02:52.709Z,1.08
2022-10-01T18:05:19.530Z,1.30
2022-10-01T18:07:47.052Z,1.60
2022-10-01T18:10:13.838Z,1.02
2022-10-01T18:12:40.978Z,0.90
2022-10-01T18:15:09.184Z,1.80
2022-10-01T18:17:42.978Z,1.80
2022-10-01T18:20:10.427Z,1.20
2022-10-01T18:23:02.278Z,3.03
2022-10-01T18:25:29.114Z,5.25
2022-10-01T18:27:55.875Z,4.50
2022-10-01T18:30:22.733Z,1.80
2022-10-01T18:32:52.207Z,1.35
2022-10-01T18:35:27.758Z,0.95
2022-10-01T18:37:59.735Z,1.20
2022-10-01T18:40:30.106Z,0.80
2022-10-01T18:43:06.414Z,1.05
2022-10-01T18:46:02.645Z,1.35
2022-10-01T18:48:59.061Z,1.20
2022-10-01T18:51:52.121Z,1.42
2022-10-01T18:54:55.089Z,1.52
2022-10-01T18:57:41.841Z,1.45
2022-10-01T19:00:14.115Z,1.58
2022-10-01T19:03:09.371Z,1.40
2022-10-01T19:06:05.136Z,1.48
2022-10-01T19:08:58.116Z,1.38
2022-10-01T19:11:41.037Z,1.40
2022-10-01T19:14:50.847Z,1.15
2022-10-01T19:17:38.672Z,1.25
2022-10-01T19:23:45.000Z,1.25
2022-10-01T19:26:23.768Z,1.50
2022-10-01T19:29:10.351Z,1.17
2022-10-01T19:31:48.613Z,1.17
2022-10-01T19:34:27.168Z,1.48
2022-10-01T19:37:01.307Z,1.05
2022-10-01T19:39:36.334Z,1.80
2022-10-01T19:42:12.088Z,1.48
2022-10-01T19:44:50.549Z,0.98
2022-10-01T19:47:36.127Z,1.20
2022-10-01T19:50:18.565Z,1.20
2022-10-01T19:55:19.241Z,0.95
2022-10-01T19:57:47.023Z,1.05
2022-10-01T20:00:17.931Z,1.20
2022-10-01T20:02:52.353Z,1.35
2022-10-01T20:05:27.598Z,1.15
2022-10-01T20:08:03.354Z,1.23
2022-10-01T20:10:40.017Z,1.17
2022-10-01T20:13:27.154Z,1.23
2022-10-01T20:16:08.531Z,1.05
2022-10-01T20:18:47.957Z,1.03
2022-10-01T20:21:30.703Z,1.13
2022-10-01T20:24:17.418Z,1.20
2022-10-01T20:26:53.387Z,1.00
2022-10-01T20:29:38.141Z,1.13
2022-10-01T20:32:15.464Z,1.30
2022-10-01T20:34:57.509Z,0.93
2022-10-01T20:37:45.198Z,1.05
2022-10-01T20:40:19.728Z,1.35
2022-10-01T20:42:50.969Z,0.90
2022-10-01T20:45:25.016Z,1.00
2022-10-01T20:47:56.105Z,0.90
2022-10-01T20:50:31.246Z,0.83
2022-10-01T20:53:12.953Z,1.00
2022-10-01T20:55:45.826Z,0.85
2022-10-01T20:58:19.935Z,1.27
2022-10-01T21:00:50.684Z,0.82
2022-10-01T21:03:26.424Z,1.00
2022-10-01T21:05:58.578Z,1.30
2022-10-01T21:11:16.249Z,0.98
2022-10-01T21:13:54.304Z,1.17
2022-10-01T21:16:54.183Z,1.00
2022-10-01T21:19:39.926Z,1.00
2022-10-01T21:22:25.140Z,1.30
2022-10-01T21:24:59.611Z,1.00
2022-10-01T21:27:47.974Z,0.93
2022-10-01T21:30:19.100Z,1.00
2022-10-01T21:33:12.989Z,1.00
2022-10-01T21:35:51.015Z,0.73
2022-10-01T21:38:29.449Z,1.00
2022-10-01T21:41:15.065Z,0.70
2022-10-01T21:43:58.976Z,0.90
2022-10-01T21:46:38.313Z,0.88
2022-10-01T21:49:13.470Z,0.90
2022-10-01T21:51:57.648Z,1.00
2022-10-01T21:55:03.865Z,1.17
2022-10-01T21:58:02.091Z,0.80
2022-10-01T22:00:29.344Z,0.80
2022-10-01T22:03:16.677Z,0.77
2022-10-01T22:05:53.269Z,0.95
2022-10-01T22:08:42.054Z,0.77
2022-10-01T22:11:15.563Z,0.77
2022-10-01T22:13:50.752Z,0.68
2022-10-01T22:16:19.902Z,0.57
2022-10-01T22:18:54.285Z,0.75
2022-10-01T22:21:27.856Z,0.80
2022-10-01T22:24:03.388Z,0.70
2022-10-01T22:26:37.408Z,0.82
2022-10-01T22:29:13.354Z,0.77
2022-10-01T22:31:44.622Z,0.90
2022-10-01T22:37:18.235Z,1.05
2022-10-01T22:39:51.265Z,1.35
2022-10-01T22:42:26.939Z,0.98
2022-10-01T22:44:54.253Z,0.73
2022-10-01T22:47:46.636Z,1.00
2022-10-01T22:50:50.148Z,0.75
2022-10-01T22:53:49.941Z,0.88
2022-10-01T22:56:25.132Z,0.93
2022-10-01T22:59:10.080Z,0.90
2022-10-01T23:01:49.284Z,1.30
2022-10-01T23:04:35.256Z,1.48
2022-10-01T23:07:18.845Z,1.10
2022-10-01T23:09:53.924Z,0.88
2022-10-01T23:12:34.743Z,0.82
2022-10-01T23:15:17.734Z,1.08
2022-10-01T23:17:57.639Z,1.13
2022-10-01T23:20:34.481Z,1.00
2022-10-01T23:23:20.185Z,1.05
2022-10-01T23:26:07.920Z,1.38
2022-10-01T23:28:53.865Z,1.08
2022-10-01T23:31:34.532Z,0.95
2022-10-01T23:34:29.003Z,1.45
2022-10-01T23:37:16.717Z,1.00
2022-10-01T23:39:55.230Z,1.20
2022-10-01T23:42:36.835Z,1.00
2022-10-01T23:45:18.672Z,1.63
2022-10-01T23:47:58.184Z,1.40
2022-10-01T23:50:32.973Z,0.90
2022-10-01T23:53:14.763Z,1.20
2022-10-01T23:55:52.936Z,0.95
2022-10-01T23:58:22.665Z,1.00
